CheckWX is a tool to help pilots better visualize weather data.  It is not intended as a substitute for an official pre-flight weather briefing.

16:21:04 UTC

KSBA METAR
Santa Barbara Municipal Airport
Santa Barbara, California, USA
Current

28 mins ago

KSBA 251553Z 36003KT 10SM SCT001 09/08 A3003 RMK AO2 SLP168 FG BANK OFFSHORE T00940078
Observed
Jan-25 @ 15:53 UTC
Wind
  • 360° at 3 KTS
Visibility
10 SM
Flight Rules
VFR
Cloud Levels
  • Scattered at 100' AGL
Temperature
C / 48°F
Dewpoint
C / 46°F
Humidity
94%
Altimeter
30.03" Hg
Pressure
1016.92 hPa
Previous

55 mins ago

KSBA 251526Z 00000KT 10SM SCT001 08/07 A3003 RMK AO2 FG BANK OFFSHORE T00780072
Observed
Jan-25 @ 15:26 UTC
Visibility
10 SM
Flight Rules
VFR
Cloud Levels
  • Scattered at 100' AGL
Temperature
C / 46°F
Dewpoint
C / 45°F
Humidity
93%
Altimeter
30.03" Hg
Pressure
1016.92 hPa
Previous

1 hour ago

KSBA 251514Z 36003KT 1/4SM FG VV001 08/08 A3003 RMK AO2 T00780078 RVRNO
Observed
Jan-25 @ 15:14 UTC
Wind
  • 360° at 3 KTS
Visibility
1/4 SM
Flight Rules
LIFR
Conditions
Fog
Cloud Levels
  • Vertical visibility at 100' AGL
Temperature
C / 46°F
Dewpoint
C / 46°F
Humidity
100%
Altimeter
30.03" Hg
Pressure
1016.92 hPa